Madison, MO (65263)

7:49 PM CDT on July 29, 2016 (GMT -0500)
APRSWXNET | | Change Station

Elev 757 ft 39.59 °N, 92.14 °W | Updated 27 minutes ago

Clear
Clear
78 °F
Feels Like 80 °F
N
3
Wind Variable Wind from North
Gusts 6.0 mph

Today
High -- | Low -- °F
--% Chance of Precip.
Yesterday
High -- | Low -- °F
Precip. -- in
Pressure 29.94 in
Visibility 10.0 miles
Clouds Clear
Heat Index 80 °F
Dew Point 67 °F
Humidity 70%
Rainfall in
Snow Depth Not available.
6:06 AM 8:23 PM
Waning Crescent, 17% visible
METAR KVER 300035Z AUTO 35004KT 10SM CLR 27/18 A2994 RMK AO2 T02680180
Pressure 29.94 in
Visibility 10.0 miles
Clouds Clear
Heat Index 80 °F
Dew Point 67 °F
Humidity 70%
Rainfall in
Snow Depth Not available.
6:06 AM 8:23 PM
Waning Crescent, 17% visible
METAR KVER 300035Z AUTO 35004KT 10SM CLR 27/18 A2994 RMK AO2 T02680180

10-Day Weather Forecast

Almanac

Astronomy

Jul. 29, 2016 Rise Set
Actual Time
Civil Twilight
Nautical Twilight
Astronomical Twilight
Moon
Length of Visible Light
Length of Day
Tomorrow will be .
, % of the Moon is Illuminated

Today's Extremes

State Highs State Lows

Community

WunderPhotos

Upload Photos

1,928,457 photos uploaded!

WunderBlog® & News

Nearby

Air Quality

  Air Quality AQ Index Pollutant
Not available.

Snow Depth

Station Depth Elevation

Earthquake Activity

City Distance Mag. Time & Date
Minimum magnitude displayed is 2.5.

Coastal Water Temperatures

Place Temperature

Stations

Nearby Weather Stations

Station Location Temp. Windchill Dew Point Humidity Wind Precip. Elev Updated Type
                   

Watches & Warnings

There are currently no watches in effect.